sensor_id;sensor_type;location;lat;lon;timestamp;P1;durP1;ratioP1;P2;durP2;ratioP2
55063;SDS011;40963;52.168;21.296;2023-01-24T00:00:05;74.82;;;24.00;;
55063;SDS011;40963;52.168;21.296;2023-01-24T00:02:32;85.45;;;24.52;;
55063;SDS011;40963;52.168;21.296;2023-01-24T00:04:58;90.15;;;25.85;;
55063;SDS011;40963;52.168;21.296;2023-01-24T00:07:24;98.03;;;27.35;;
55063;SDS011;40963;52.168;21.296;2023-01-24T00:09:49;87.93;;;27.30;;
55063;SDS011;40963;52.168;21.296;2023-01-24T00:12:15;89.38;;;27.17;;
55063;SDS011;40963;52.168;21.296;2023-01-24T00:14:40;97.22;;;27.20;;
55063;SDS011;40963;52.168;21.296;2023-01-24T00:17:06;97.47;;;26.20;;
55063;SDS011;40963;52.168;21.296;2023-01-24T00:19:33;93.65;;;28.90;;
55063;SDS011;40963;52.168;21.296;2023-01-24T00:21:59;93.60;;;26.83;;
55063;SDS011;40963;52.168;21.296;2023-01-24T00:24:26;93.80;;;26.23;;
55063;SDS011;40963;52.168;21.296;2023-01-24T00:26:53;86.45;;;24.92;;
55063;SDS011;40963;52.168;21.296;2023-01-24T00:29:19;82.65;;;24.65;;
55063;SDS011;40963;52.168;21.296;2023-01-24T00:31:45;102.57;;;28.10;;
55063;SDS011;40963;52.168;21.296;2023-01-24T00:34:10;90.93;;;26.23;;
55063;SDS011;40963;52.168;21.296;2023-01-24T00:36:36;63.75;;;21.92;;
55063;SDS011;40963;52.168;21.296;2023-01-24T00:39:01;65.38;;;22.60;;
55063;SDS011;40963;52.168;21.296;2023-01-24T00:41:27;71.50;;;23.55;;
55063;SDS011;40963;52.168;21.296;2023-01-24T00:43:53;73.55;;;23.20;;
55063;SDS011;40963;52.168;21.296;2023-01-24T00:46:18;76.72;;;23.33;;
55063;SDS011;40963;52.168;21.296;2023-01-24T00:48:44;78.15;;;23.70;;
55063;SDS011;40963;52.168;21.296;2023-01-24T00:51:10;68.78;;;21.60;;
55063;SDS011;40963;52.168;21.296;2023-01-24T00:53:35;76.72;;;22.63;;
55063;SDS011;40963;52.168;21.296;2023-01-24T00:56:01;75.45;;;24.10;;
55063;SDS011;40963;52.168;21.296;2023-01-24T00:58:26;72.97;;;23.33;;
55063;SDS011;40963;52.168;21.296;2023-01-24T01:00:56;60.65;;;20.42;;
55063;SDS011;40963;52.168;21.296;2023-01-24T01:03:23;68.22;;;21.38;;
55063;SDS011;40963;52.168;21.296;2023-01-24T01:05:49;79.30;;;22.08;;
55063;SDS011;40963;52.168;21.296;2023-01-24T01:08:14;76.82;;;23.85;;
55063;SDS011;40963;52.168;21.296;2023-01-24T01:10:40;63.28;;;21.63;;
55063;SDS011;40963;52.168;21.296;2023-01-24T01:13:06;70.72;;;22.13;;
55063;SDS011;40963;52.168;21.296;2023-01-24T01:15:33;81.55;;;22.67;;
55063;SDS011;40963;52.168;21.296;2023-01-24T01:17:59;64.65;;;21.10;;
55063;SDS011;40963;52.168;21.296;2023-01-24T01:20:24;65.57;;;23.13;;
55063;SDS011;40963;52.168;21.296;2023-01-24T01:22:51;66.50;;;21.55;;
55063;SDS011;40963;52.168;21.296;2023-01-24T01:25:17;74.80;;;21.35;;
55063;SDS011;40963;52.168;21.296;2023-01-24T01:27:43;69.47;;;22.15;;
55063;SDS011;40963;52.168;21.296;2023-01-24T01:30:08;64.78;;;21.73;;
55063;SDS011;40963;52.168;21.296;2023-01-24T01:32:34;75.50;;;23.15;;
55063;SDS011;40963;52.168;21.296;2023-01-24T01:35:00;66.70;;;21.25;;
55063;SDS011;40963;52.168;21.296;2023-01-24T01:37:26;80.53;;;21.20;;
55063;SDS011;40963;52.168;21.296;2023-01-24T01:39:51;61.15;;;20.15;;
55063;SDS011;40963;52.168;21.296;2023-01-24T01:42:17;64.50;;;19.58;;
55063;SDS011;40963;52.168;21.296;2023-01-24T01:44:43;74.22;;;21.30;;
55063;SDS011;40963;52.168;21.296;2023-01-24T01:47:29;66.97;;;21.02;;
55063;SDS011;40963;52.168;21.296;2023-01-24T01:50:03;70.80;;;21.45;;
55063;SDS011;40963;52.168;21.296;2023-01-24T01:52:40;60.97;;;20.63;;
55063;SDS011;40963;52.168;21.296;2023-01-24T01:55:12;55.50;;;18.33;;
55063;SDS011;40963;52.168;21.296;2023-01-24T01:57:42;58.28;;;20.58;;
55063;SDS011;40963;52.168;21.296;2023-01-24T02:00:14;65.28;;;21.52;;
55063;SDS011;40963;52.168;21.296;2023-01-24T02:02:43;52.75;;;18.40;;
55063;SDS011;40963;52.168;21.296;2023-01-24T02:05:14;63.08;;;19.08;;
55063;SDS011;40963;52.168;21.296;2023-01-24T02:10:22;57.50;;;20.02;;
55063;SDS011;40963;52.168;21.296;2023-01-24T02:13:10;69.63;;;21.20;;
55063;SDS011;40963;52.168;21.296;2023-01-24T02:15:36;59.13;;;20.13;;
55063;SDS011;40963;52.168;21.296;2023-01-24T02:18:21;60.15;;;20.15;;
55063;SDS011;40963;52.168;21.296;2023-01-24T02:20:48;58.35;;;19.58;;
55063;SDS011;40963;52.168;21.296;2023-01-24T02:26:07;51.95;;;19.55;;
55063;SDS011;40963;52.168;21.296;2023-01-24T02:28:42;58.47;;;21.05;;
55063;SDS011;40963;52.168;21.296;2023-01-24T02:31:50;72.13;;;21.27;;
55063;SDS011;40963;52.168;21.296;2023-01-24T02:34:30;55.80;;;19.50;;
55063;SDS011;40963;52.168;21.296;2023-01-24T02:36:57;55.17;;;20.65;;
55063;SDS011;40963;52.168;21.296;2023-01-24T02:39:27;61.58;;;19.38;;
55063;SDS011;40963;52.168;21.296;2023-01-24T02:44:34;54.03;;;18.40;;
55063;SDS011;40963;52.168;21.296;2023-01-24T02:47:19;57.97;;;18.02;;
55063;SDS011;40963;52.168;21.296;2023-01-24T02:49:45;53.13;;;17.92;;
55063;SDS011;40963;52.168;21.296;2023-01-24T02:52:10;67.03;;;20.05;;
55063;SDS011;40963;52.168;21.296;2023-01-24T02:54:54;49.38;;;19.10;;
55063;SDS011;40963;52.168;21.296;2023-01-24T02:57:20;48.53;;;17.73;;
55063;SDS011;40963;52.168;21.296;2023-01-24T03:00:05;49.00;;;16.85;;
55063;SDS011;40963;52.168;21.296;2023-01-24T03:02:32;57.60;;;17.83;;
55063;SDS011;40963;52.168;21.296;2023-01-24T03:04:58;56.90;;;19.58;;
55063;SDS011;40963;52.168;21.296;2023-01-24T03:07:24;52.28;;;18.40;;
55063;SDS011;40963;52.168;21.296;2023-01-24T03:09:49;50.88;;;19.08;;
55063;SDS011;40963;52.168;21.296;2023-01-24T03:12:15;53.00;;;19.35;;
55063;SDS011;40963;52.168;21.296;2023-01-24T03:14:59;50.60;;;17.65;;
55063;SDS011;40963;52.168;21.296;2023-01-24T03:17:43;40.25;;;15.10;;
55063;SDS011;40963;52.168;21.296;2023-01-24T03:20:27;55.30;;;17.85;;
55063;SDS011;40963;52.168;21.296;2023-01-24T03:23:12;54.53;;;16.63;;
55063;SDS011;40963;52.168;21.296;2023-01-24T03:25:56;46.58;;;16.35;;
55063;SDS011;40963;52.168;21.296;2023-01-24T03:28:41;62.92;;;17.80;;
55063;SDS011;40963;52.168;21.296;2023-01-24T03:31:26;46.08;;;17.40;;
55063;SDS011;40963;52.168;21.296;2023-01-24T03:34:10;48.83;;;16.75;;
55063;SDS011;40963;52.168;21.296;2023-01-24T03:36:55;41.55;;;14.88;;
55063;SDS011;40963;52.168;21.296;2023-01-24T03:39:21;45.33;;;14.88;;
55063;SDS011;40963;52.168;21.296;2023-01-24T03:42:05;42.45;;;15.68;;
55063;SDS011;40963;52.168;21.296;2023-01-24T03:44:31;51.28;;;18.20;;
55063;SDS011;40963;52.168;21.296;2023-01-24T03:46:56;45.28;;;18.10;;
55063;SDS011;40963;52.168;21.296;2023-01-24T03:49:22;50.95;;;17.33;;
55063;SDS011;40963;52.168;21.296;2023-01-24T03:52:06;40.97;;;15.57;;
55063;SDS011;40963;52.168;21.296;2023-01-24T03:54:50;40.95;;;16.35;;
55063;SDS011;40963;52.168;21.296;2023-01-24T03:57:16;47.60;;;16.88;;
55063;SDS011;40963;52.168;21.296;2023-01-24T03:59:42;51.20;;;17.45;;
55063;SDS011;40963;52.168;21.296;2023-01-24T04:02:07;50.03;;;17.30;;
55063;SDS011;40963;52.168;21.296;2023-01-24T04:04:33;55.38;;;18.10;;
55063;SDS011;40963;52.168;21.296;2023-01-24T04:07:18;33.42;;;15.40;;
55063;SDS011;40963;52.168;21.296;2023-01-24T04:09:43;52.60;;;16.85;;
55063;SDS011;40963;52.168;21.296;2023-01-24T04:12:09;49.97;;;18.27;;
55063;SDS011;40963;52.168;21.296;2023-01-24T04:14:35;46.00;;;15.98;;
55063;SDS011;40963;52.168;21.296;2023-01-24T04:17:00;43.15;;;15.50;;
55063;SDS011;40963;52.168;21.296;2023-01-24T04:19:26;43.53;;;17.27;;
55063;SDS011;40963;52.168;21.296;2023-01-24T04:21:52;39.15;;;15.23;;
55063;SDS011;40963;52.168;21.296;2023-01-24T04:24:17;38.47;;;14.15;;
55063;SDS011;40963;52.168;21.296;2023-01-24T04:26:43;39.67;;;15.80;;
55063;SDS011;40963;52.168;21.296;2023-01-24T04:29:08;46.92;;;17.35;;
55063;SDS011;40963;52.168;21.296;2023-01-24T04:31:34;44.83;;;14.75;;
55063;SDS011;40963;52.168;21.296;2023-01-24T04:34:00;36.08;;;14.65;;
55063;SDS011;40963;52.168;21.296;2023-01-24T04:36:25;38.05;;;13.57;;
55063;SDS011;40963;52.168;21.296;2023-01-24T04:38:51;46.53;;;15.45;;
55063;SDS011;40963;52.168;21.296;2023-01-24T04:41:16;36.63;;;14.13;;
55063;SDS011;40963;52.168;21.296;2023-01-24T04:43:42;38.55;;;15.48;;
55063;SDS011;40963;52.168;21.296;2023-01-24T04:46:08;40.17;;;15.35;;
55063;SDS011;40963;52.168;21.296;2023-01-24T04:48:33;44.63;;;15.63;;
55063;SDS011;40963;52.168;21.296;2023-01-24T04:51:00;37.17;;;16.10;;
55063;SDS011;40963;52.168;21.296;2023-01-24T04:53:26;43.47;;;15.23;;
55063;SDS011;40963;52.168;21.296;2023-01-24T04:55:52;39.42;;;15.02;;
55063;SDS011;40963;52.168;21.296;2023-01-24T04:58:17;51.67;;;15.75;;
55063;SDS011;40963;52.168;21.296;2023-01-24T05:00:43;44.85;;;15.45;;
55063;SDS011;40963;52.168;21.296;2023-01-24T05:03:09;50.40;;;16.80;;
55063;SDS011;40963;52.168;21.296;2023-01-24T05:05:34;42.75;;;15.70;;
55063;SDS011;40963;52.168;21.296;2023-01-24T05:08:00;50.00;;;15.73;;
55063;SDS011;40963;52.168;21.296;2023-01-24T05:10:27;45.42;;;16.40;;
55063;SDS011;40963;52.168;21.296;2023-01-24T05:12:52;40.38;;;15.07;;
55063;SDS011;40963;52.168;21.296;2023-01-24T05:15:18;42.38;;;16.00;;
55063;SDS011;40963;52.168;21.296;2023-01-24T05:17:46;50.42;;;15.10;;
55063;SDS011;40963;52.168;21.296;2023-01-24T05:20:12;43.25;;;15.60;;
55063;SDS011;40963;52.168;21.296;2023-01-24T05:22:38;37.08;;;13.85;;
55063;SDS011;40963;52.168;21.296;2023-01-24T05:25:03;37.67;;;13.93;;
55063;SDS011;40963;52.168;21.296;2023-01-24T05:27:30;42.15;;;16.27;;
55063;SDS011;40963;52.168;21.296;2023-01-24T05:29:55;49.05;;;15.65;;
55063;SDS011;40963;52.168;21.296;2023-01-24T05:32:21;44.75;;;15.85;;
55063;SDS011;40963;52.168;21.296;2023-01-24T05:34:46;51.10;;;15.27;;
55063;SDS011;40963;52.168;21.296;2023-01-24T05:37:12;48.40;;;15.80;;
55063;SDS011;40963;52.168;21.296;2023-01-24T05:39:38;46.58;;;15.70;;
55063;SDS011;40963;52.168;21.296;2023-01-24T05:42:03;47.13;;;14.75;;
55063;SDS011;40963;52.168;21.296;2023-01-24T05:44:29;38.80;;;14.18;;
55063;SDS011;40963;52.168;21.296;2023-01-24T05:46:54;41.72;;;15.05;;
55063;SDS011;40963;52.168;21.296;2023-01-24T05:49:20;43.50;;;15.13;;
55063;SDS011;40963;52.168;21.296;2023-01-24T05:51:46;49.05;;;16.33;;
55063;SDS011;40963;52.168;21.296;2023-01-24T05:54:11;45.58;;;17.38;;
55063;SDS011;40963;52.168;21.296;2023-01-24T05:56:37;47.25;;;15.27;;
55063;SDS011;40963;52.168;21.296;2023-01-24T05:59:03;51.47;;;16.55;;
55063;SDS011;40963;52.168;21.296;2023-01-24T06:01:28;39.13;;;15.07;;
55063;SDS011;40963;52.168;21.296;2023-01-24T06:03:54;41.28;;;15.93;;
55063;SDS011;40963;52.168;21.296;2023-01-24T06:06:21;43.75;;;15.40;;
55063;SDS011;40963;52.168;21.296;2023-01-24T06:08:48;40.28;;;15.60;;
55063;SDS011;40963;52.168;21.296;2023-01-24T06:11:15;43.38;;;15.40;;
55063;SDS011;40963;52.168;21.296;2023-01-24T06:13:44;50.67;;;16.75;;
55063;SDS011;40963;52.168;21.296;2023-01-24T06:16:11;46.28;;;14.98;;
55063;SDS011;40963;52.168;21.296;2023-01-24T06:18:39;45.35;;;15.52;;
55063;SDS011;40963;52.168;21.296;2023-01-24T06:21:06;49.92;;;16.30;;
55063;SDS011;40963;52.168;21.296;2023-01-24T06:23:40;42.00;;;14.20;;
55063;SDS011;40963;52.168;21.296;2023-01-24T06:26:08;44.72;;;14.82;;
55063;SDS011;40963;52.168;21.296;2023-01-24T06:28:35;43.50;;;15.77;;
55063;SDS011;40963;52.168;21.296;2023-01-24T06:39:59;42.93;;;14.70;;
55063;SDS011;40963;52.168;21.296;2023-01-24T06:42:25;38.47;;;14.98;;
55063;SDS011;40963;52.168;21.296;2023-01-24T06:44:50;39.42;;;15.50;;
55063;SDS011;40963;52.168;21.296;2023-01-24T06:47:16;41.75;;;15.65;;
55063;SDS011;40963;52.168;21.296;2023-01-24T06:49:42;48.70;;;16.10;;
55063;SDS011;40963;52.168;21.296;2023-01-24T06:52:08;47.03;;;15.25;;
55063;SDS011;40963;52.168;21.296;2023-01-24T06:54:34;42.00;;;15.63;;
55063;SDS011;40963;52.168;21.296;2023-01-24T06:57:00;44.60;;;15.93;;
55063;SDS011;40963;52.168;21.296;2023-01-24T06:59:27;41.67;;;15.45;;
55063;SDS011;40963;52.168;21.296;2023-01-24T07:01:53;46.17;;;15.55;;
55063;SDS011;40963;52.168;21.296;2023-01-24T07:04:18;45.80;;;16.08;;
55063;SDS011;40963;52.168;21.296;2023-01-24T07:06:44;51.60;;;15.93;;
55063;SDS011;40963;52.168;21.296;2023-01-24T07:09:10;44.55;;;16.98;;
55063;SDS011;40963;52.168;21.296;2023-01-24T07:11:35;47.67;;;16.35;;
55063;SDS011;40963;52.168;21.296;2023-01-24T07:14:01;53.30;;;17.92;;
55063;SDS011;40963;52.168;21.296;2023-01-24T07:16:27;46.67;;;17.05;;
55063;SDS011;40963;52.168;21.296;2023-01-24T07:18:53;51.30;;;17.35;;
55063;SDS011;40963;52.168;21.296;2023-01-24T07:21:19;57.47;;;20.73;;
55063;SDS011;40963;52.168;21.296;2023-01-24T07:23:46;59.40;;;19.70;;
55063;SDS011;40963;52.168;21.296;2023-01-24T07:26:13;50.25;;;17.00;;
55063;SDS011;40963;52.168;21.296;2023-01-24T07:28:39;59.03;;;17.20;;
55063;SDS011;40963;52.168;21.296;2023-01-24T07:31:06;62.22;;;19.23;;
55063;SDS011;40963;52.168;21.296;2023-01-24T07:33:34;62.97;;;20.40;;
55063;SDS011;40963;52.168;21.296;2023-01-24T07:36:00;63.22;;;16.77;;
55063;SDS011;40963;52.168;21.296;2023-01-24T07:38:25;45.10;;;15.75;;
55063;SDS011;40963;52.168;21.296;2023-01-24T07:40:51;51.13;;;16.27;;
55063;SDS011;40963;52.168;21.296;2023-01-24T07:43:17;52.45;;;18.38;;
55063;SDS011;40963;52.168;21.296;2023-01-24T07:45:45;49.60;;;17.58;;
55063;SDS011;40963;52.168;21.296;2023-01-24T07:48:11;54.85;;;17.20;;
55063;SDS011;40963;52.168;21.296;2023-01-24T07:50:36;51.33;;;18.88;;
55063;SDS011;40963;52.168;21.296;2023-01-24T07:53:02;53.63;;;17.35;;
55063;SDS011;40963;52.168;21.296;2023-01-24T07:55:28;60.33;;;18.65;;
55063;SDS011;40963;52.168;21.296;2023-01-24T07:57:58;57.55;;;17.17;;
55063;SDS011;40963;52.168;21.296;2023-01-24T08:00:25;64.47;;;18.17;;
55063;SDS011;40963;52.168;21.296;2023-01-24T08:02:51;56.42;;;18.13;;
55063;SDS011;40963;52.168;21.296;2023-01-24T08:05:16;49.72;;;16.80;;
55063;SDS011;40963;52.168;21.296;2023-01-24T08:07:42;53.17;;;17.08;;
55063;SDS011;40963;52.168;21.296;2023-01-24T08:10:08;57.05;;;17.48;;
55063;SDS011;40963;52.168;21.296;2023-01-24T08:12:33;67.72;;;19.90;;
55063;SDS011;40963;52.168;21.296;2023-01-24T08:14:59;51.65;;;17.20;;
55063;SDS011;40963;52.168;21.296;2023-01-24T08:17:25;61.20;;;18.15;;
55063;SDS011;40963;52.168;21.296;2023-01-24T08:19:50;61.70;;;17.95;;
55063;SDS011;40963;52.168;21.296;2023-01-24T08:22:16;63.50;;;20.30;;
55063;SDS011;40963;52.168;21.296;2023-01-24T08:24:42;52.70;;;17.60;;
55063;SDS011;40963;52.168;21.296;2023-01-24T08:27:07;61.80;;;19.02;;
55063;SDS011;40963;52.168;21.296;2023-01-24T08:29:33;56.45;;;17.75;;
55063;SDS011;40963;52.168;21.296;2023-01-24T08:31:59;54.40;;;17.98;;
55063;SDS011;40963;52.168;21.296;2023-01-24T08:34:24;55.03;;;19.30;;
55063;SDS011;40963;52.168;21.296;2023-01-24T08:36:50;56.03;;;17.88;;
55063;SDS011;40963;52.168;21.296;2023-01-24T08:39:16;54.40;;;18.38;;
55063;SDS011;40963;52.168;21.296;2023-01-24T08:41:42;57.13;;;18.20;;
55063;SDS011;40963;52.168;21.296;2023-01-24T08:44:10;48.80;;;17.38;;
55063;SDS011;40963;52.168;21.296;2023-01-24T08:46:36;59.72;;;18.67;;
55063;SDS011;40963;52.168;21.296;2023-01-24T08:49:02;52.63;;;18.83;;
55063;SDS011;40963;52.168;21.296;2023-01-24T08:51:28;54.67;;;16.73;;
55063;SDS011;40963;52.168;21.296;2023-01-24T08:53:53;56.80;;;17.88;;
55063;SDS011;40963;52.168;21.296;2023-01-24T08:56:19;54.97;;;16.85;;
55063;SDS011;40963;52.168;21.296;2023-01-24T08:58:45;51.92;;;16.92;;
55063;SDS011;40963;52.168;21.296;2023-01-24T09:01:10;58.22;;;16.50;;
55063;SDS011;40963;52.168;21.296;2023-01-24T09:03:36;48.60;;;17.05;;
55063;SDS011;40963;52.168;21.296;2023-01-24T09:06:02;50.53;;;16.85;;
55063;SDS011;40963;52.168;21.296;2023-01-24T09:08:29;49.42;;;16.88;;
55063;SDS011;40963;52.168;21.296;2023-01-24T09:10:57;60.35;;;17.58;;
55063;SDS011;40963;52.168;21.296;2023-01-24T09:13:23;53.85;;;16.42;;
55063;SDS011;40963;52.168;21.296;2023-01-24T09:15:49;52.78;;;18.38;;
55063;SDS011;40963;52.168;21.296;2023-01-24T09:18:15;55.08;;;17.05;;
55063;SDS011;40963;52.168;21.296;2023-01-24T09:20:41;54.75;;;17.33;;
55063;SDS011;40963;52.168;21.296;2023-01-24T09:23:11;68.00;;;21.33;;
55063;SDS011;40963;52.168;21.296;2023-01-24T09:25:39;59.15;;;20.25;;
55063;SDS011;40963;52.168;21.296;2023-01-24T09:28:14;64.10;;;20.47;;
55063;SDS011;40963;52.168;21.296;2023-01-24T09:30:40;62.97;;;18.92;;
55063;SDS011;40963;52.168;21.296;2023-01-24T09:33:05;56.90;;;19.05;;
55063;SDS011;40963;52.168;21.296;2023-01-24T09:35:31;58.88;;;18.23;;
55063;SDS011;40963;52.168;21.296;2023-01-24T09:37:56;53.05;;;17.40;;
55063;SDS011;40963;52.168;21.296;2023-01-24T09:40:26;46.50;;;18.23;;
55063;SDS011;40963;52.168;21.296;2023-01-24T09:43:04;49.47;;;17.27;;
55063;SDS011;40963;52.168;21.296;2023-01-24T09:45:53;50.75;;;16.77;;
55063;SDS011;40963;52.168;21.296;2023-01-24T09:48:32;44.63;;;15.98;;
55063;SDS011;40963;52.168;21.296;2023-01-24T09:51:03;50.70;;;17.23;;
55063;SDS011;40963;52.168;21.296;2023-01-24T09:53:37;52.83;;;18.80;;
55063;SDS011;40963;52.168;21.296;2023-01-24T09:56:12;50.80;;;16.70;;
55063;SDS011;40963;52.168;21.296;2023-01-24T09:59:01;49.77;;;18.80;;
55063;SDS011;40963;52.168;21.296;2023-01-24T10:01:37;53.33;;;17.33;;
55063;SDS011;40963;52.168;21.296;2023-01-24T10:04:08;57.53;;;19.98;;
55063;SDS011;40963;52.168;21.296;2023-01-24T10:06:38;54.55;;;19.25;;
55063;SDS011;40963;52.168;21.296;2023-01-24T10:09:09;55.95;;;19.25;;
55063;SDS011;40963;52.168;21.296;2023-01-24T10:14:40;51.17;;;18.80;;
55063;SDS011;40963;52.168;21.296;2023-01-24T10:19:56;47.97;;;17.15;;
55063;SDS011;40963;52.168;21.296;2023-01-24T10:23:07;56.63;;;19.73;;
55063;SDS011;40963;52.168;21.296;2023-01-24T10:28:24;56.85;;;18.25;;
55063;SDS011;40963;52.168;21.296;2023-01-24T10:30:58;49.20;;;18.33;;
55063;SDS011;40963;52.168;21.296;2023-01-24T10:33:27;52.35;;;18.27;;
55063;SDS011;40963;52.168;21.296;2023-01-24T10:35:58;52.30;;;17.95;;
55063;SDS011;40963;52.168;21.296;2023-01-24T10:38:28;57.72;;;18.65;;
55063;SDS011;40963;52.168;21.296;2023-01-24T10:40:55;60.47;;;24.02;;
55063;SDS011;40963;52.168;21.296;2023-01-24T10:43:33;50.88;;;18.20;;
55063;SDS011;40963;52.168;21.296;2023-01-24T10:48:55;50.75;;;19.38;;
55063;SDS011;40963;52.168;21.296;2023-01-24T10:51:24;55.03;;;20.10;;
55063;SDS011;40963;52.168;21.296;2023-01-24T10:53:50;59.47;;;20.77;;
55063;SDS011;40963;52.168;21.296;2023-01-24T10:56:18;52.90;;;17.60;;
55063;SDS011;40963;52.168;21.296;2023-01-24T11:01:22;42.38;;;17.65;;
55063;SDS011;40963;52.168;21.296;2023-01-24T11:03:56;58.50;;;19.13;;
55063;SDS011;40963;52.168;21.296;2023-01-24T11:08:54;62.78;;;21.60;;
55063;SDS011;40963;52.168;21.296;2023-01-24T11:11:28;62.10;;;19.70;;
55063;SDS011;40963;52.168;21.296;2023-01-24T11:13:56;49.83;;;17.23;;
55063;SDS011;40963;52.168;21.296;2023-01-24T11:16:27;52.28;;;20.60;;
55063;SDS011;40963;52.168;21.296;2023-01-24T11:19:04;61.75;;;19.55;;
55063;SDS011;40963;52.168;21.296;2023-01-24T11:21:31;53.90;;;18.80;;
55063;SDS011;40963;52.168;21.296;2023-01-24T11:26:40;49.80;;;19.70;;
55063;SDS011;40963;52.168;21.296;2023-01-24T11:29:29;52.40;;;20.42;;
55063;SDS011;40963;52.168;21.296;2023-01-24T11:31:57;48.92;;;19.00;;
55063;SDS011;40963;52.168;21.296;2023-01-24T11:34:45;58.13;;;20.88;;
55063;SDS011;40963;52.168;21.296;2023-01-24T11:37:37;60.83;;;19.25;;
55063;SDS011;40963;52.168;21.296;2023-01-24T11:40:19;52.88;;;20.55;;
55063;SDS011;40963;52.168;21.296;2023-01-24T11:42:51;52.03;;;20.48;;
55063;SDS011;40963;52.168;21.296;2023-01-24T11:48:27;59.63;;;20.95;;
55063;SDS011;40963;52.168;21.296;2023-01-24T11:59:01;57.05;;;21.05;;
55063;SDS011;40963;52.168;21.296;2023-01-24T12:01:44;57.22;;;20.42;;
55063;SDS011;40963;52.168;21.296;2023-01-24T12:09:33;44.70;;;18.42;;
55063;SDS011;40963;52.168;21.296;2023-01-24T12:12:11;48.88;;;17.35;;
55063;SDS011;40963;52.168;21.296;2023-01-24T12:15:02;40.05;;;17.27;;
55063;SDS011;40963;52.168;21.296;2023-01-24T12:23:28;42.90;;;15.88;;
55063;SDS011;40963;52.168;21.296;2023-01-24T12:26:02;48.33;;;19.67;;
55063;SDS011;40963;52.168;21.296;2023-01-24T12:28:39;45.22;;;16.15;;
55063;SDS011;40963;52.168;21.296;2023-01-24T12:31:18;54.47;;;16.48;;
55063;SDS011;40963;52.168;21.296;2023-01-24T12:33:56;45.17;;;17.42;;
55063;SDS011;40963;52.168;21.296;2023-01-24T12:37:06;46.95;;;16.83;;
55063;SDS011;40963;52.168;21.296;2023-01-24T12:39:28;33.25;;;14.65;;
55063;SDS011;40963;52.168;21.296;2023-01-24T12:44:41;47.90;;;16.92;;
55063;SDS011;40963;52.168;21.296;2023-01-24T12:55:24;42.08;;;15.18;;
55063;SDS011;40963;52.168;21.296;2023-01-24T12:58:09;37.40;;;14.47;;
55063;SDS011;40963;52.168;21.296;2023-01-24T13:00:51;37.47;;;15.57;;
55063;SDS011;40963;52.168;21.296;2023-01-24T13:06:32;38.20;;;15.10;;
55063;SDS011;40963;52.168;21.296;2023-01-24T13:09:21;34.13;;;14.13;;
55063;SDS011;40963;52.168;21.296;2023-01-24T13:11:54;39.10;;;14.23;;
55063;SDS011;40963;52.168;21.296;2023-01-24T13:14:24;45.10;;;17.85;;
55063;SDS011;40963;52.168;21.296;2023-01-24T13:17:04;33.25;;;14.05;;
55063;SDS011;40963;52.168;21.296;2023-01-24T13:22:31;40.75;;;15.60;;
55063;SDS011;40963;52.168;21.296;2023-01-24T13:33:30;39.28;;;14.65;;
55063;SDS011;40963;52.168;21.296;2023-01-24T13:36:22;38.47;;;15.40;;
55063;SDS011;40963;52.168;21.296;2023-01-24T13:38:56;48.40;;;17.35;;
55063;SDS011;40963;52.168;21.296;2023-01-24T13:46:42;46.08;;;18.02;;
55063;SDS011;40963;52.168;21.296;2023-01-24T13:54:56;36.78;;;15.85;;
55063;SDS011;40963;52.168;21.296;2023-01-24T13:57:31;45.55;;;17.77;;
55063;SDS011;40963;52.168;21.296;2023-01-24T14:07:53;48.90;;;18.52;;
55063;SDS011;40963;52.168;21.296;2023-01-24T14:11:13;48.10;;;16.50;;
55063;SDS011;40963;52.168;21.296;2023-01-24T14:21:24;53.80;;;17.95;;
55063;SDS011;40963;52.168;21.296;2023-01-24T14:23:57;41.50;;;17.38;;
55063;SDS011;40963;52.168;21.296;2023-01-24T14:26:27;50.47;;;18.40;;
55063;SDS011;40963;52.168;21.296;2023-01-24T14:28:59;44.22;;;17.75;;
55063;SDS011;40963;52.168;21.296;2023-01-24T14:31:37;61.85;;;20.83;;
55063;SDS011;40963;52.168;21.296;2023-01-24T14:36:45;47.67;;;19.50;;
55063;SDS011;40963;52.168;21.296;2023-01-24T14:39:22;52.17;;;20.52;;
55063;SDS011;40963;52.168;21.296;2023-01-24T14:44:25;50.15;;;16.67;;
55063;SDS011;40963;52.168;21.296;2023-01-24T14:49:32;57.10;;;21.92;;
55063;SDS011;40963;52.168;21.296;2023-01-24T14:52:17;51.80;;;18.88;;
55063;SDS011;40963;52.168;21.296;2023-01-24T14:54:50;50.35;;;19.63;;
55063;SDS011;40963;52.168;21.296;2023-01-24T15:02:58;48.05;;;19.05;;
55063;SDS011;40963;52.168;21.296;2023-01-24T15:05:28;64.20;;;20.08;;
55063;SDS011;40963;52.168;21.296;2023-01-24T15:07:59;51.67;;;17.88;;
55063;SDS011;40963;52.168;21.296;2023-01-24T15:10:36;50.85;;;18.77;;
55063;SDS011;40963;52.168;21.296;2023-01-24T15:13:07;55.72;;;19.80;;
55063;SDS011;40963;52.168;21.296;2023-01-24T15:15:36;39.85;;;17.05;;
55063;SDS011;40963;52.168;21.296;2023-01-24T15:18:04;53.70;;;19.92;;
55063;SDS011;40963;52.168;21.296;2023-01-24T15:20:32;48.88;;;17.67;;
55063;SDS011;40963;52.168;21.296;2023-01-24T15:22:59;48.13;;;18.65;;
55063;SDS011;40963;52.168;21.296;2023-01-24T15:27:55;48.33;;;19.08;;
55063;SDS011;40963;52.168;21.296;2023-01-24T15:30:28;51.63;;;18.95;;
55063;SDS011;40963;52.168;21.296;2023-01-24T15:40:44;45.10;;;17.58;;
55063;SDS011;40963;52.168;21.296;2023-01-24T15:43:14;49.58;;;19.55;;
55063;SDS011;40963;52.168;21.296;2023-01-24T15:46:20;42.58;;;17.52;;
55063;SDS011;40963;52.168;21.296;2023-01-24T15:54:41;43.70;;;16.58;;
55063;SDS011;40963;52.168;21.296;2023-01-24T15:59:53;48.67;;;18.75;;
55063;SDS011;40963;52.168;21.296;2023-01-24T16:02:22;40.60;;;16.00;;
55063;SDS011;40963;52.168;21.296;2023-01-24T16:04:48;43.72;;;17.52;;
55063;SDS011;40963;52.168;21.296;2023-01-24T16:07:15;55.03;;;18.15;;
55063;SDS011;40963;52.168;21.296;2023-01-24T16:09:43;47.78;;;16.95;;
55063;SDS011;40963;52.168;21.296;2023-01-24T16:12:11;50.85;;;19.17;;
55063;SDS011;40963;52.168;21.296;2023-01-24T16:14:41;48.30;;;18.35;;
55063;SDS011;40963;52.168;21.296;2023-01-24T16:17:12;57.33;;;20.58;;
55063;SDS011;40963;52.168;21.296;2023-01-24T16:19:39;54.83;;;21.80;;
55063;SDS011;40963;52.168;21.296;2023-01-24T16:22:04;56.20;;;21.40;;
55063;SDS011;40963;52.168;21.296;2023-01-24T16:24:30;54.30;;;21.25;;
55063;SDS011;40963;52.168;21.296;2023-01-24T16:26:55;70.55;;;23.42;;
55063;SDS011;40963;52.168;21.296;2023-01-24T16:29:25;64.03;;;22.52;;
55063;SDS011;40963;52.168;21.296;2023-01-24T16:31:53;71.88;;;24.98;;
55063;SDS011;40963;52.168;21.296;2023-01-24T16:34:18;68.13;;;23.17;;
55063;SDS011;40963;52.168;21.296;2023-01-24T16:36:44;59.40;;;22.20;;
55063;SDS011;40963;52.168;21.296;2023-01-24T16:39:17;51.35;;;21.15;;
55063;SDS011;40963;52.168;21.296;2023-01-24T16:41:45;63.63;;;22.42;;
55063;SDS011;40963;52.168;21.296;2023-01-24T16:44:12;50.53;;;21.75;;
55063;SDS011;40963;52.168;21.296;2023-01-24T16:46:38;63.17;;;21.80;;